Time;durP1;ratioP1;P1;durP2;ratioP2;P2;SDS_P1;SDS_P2;PMS_P1;PMS_P2;Temp;Humidity;BMP_temperature;BMP_pressure;BME280_temperature;BME280_humidity;BME280_pressure;Samples;Min_cycle;Max_cycle;Signal;HPM_P1;HPM_P2
2021/03/16 00:00:16;;;;;;;20.20;12.37;;;;;;;6.47;68.34;99491.89;1747712;79;21190;-65
2021/03/16 00:03:02;;;;;;;17.05;11.08;;;;;;;6.40;68.48;99488.91;1750100;79;21173;-65
2021/03/16 00:05:33;;;;;;;15.88;10.28;;;;;;;6.45;68.42;99493.80;1757537;79;21306;-66
2021/03/16 00:08:01;;;;;;;20.72;10.98;;;;;;;6.51;68.19;99492.84;1764940;79;21128;-65
2021/03/16 00:10:28;;;;;;;19.77;10.58;;;;;;;6.58;68.30;99489.77;1759151;80;21637;-66
2021/03/16 00:12:56;;;;;;;15.03;9.73;;;;;;;6.63;68.44;99498.91;1755333;79;21215;-66
2021/03/16 00:15:23;;;;;;;15.00;10.18;;;;;;;6.67;68.31;99494.27;1720617;79;21174;-66
2021/03/16 00:17:51;;;;;;;17.52;11.68;;;;;;;6.69;68.43;99498.89;1727074;81;21151;-64
2021/03/16 00:20:18;;;;;;;27.55;10.95;;;;;;;6.67;68.34;99492.51;1716373;81;21686;-67
2021/03/16 00:22:46;;;;;;;18.25;10.58;;;;;;;6.67;68.34;99492.51;1750656;79;21204;-64
2021/03/16 00:25:16;;;;;;;16.23;11.28;;;;;;;6.68;68.08;99505.91;1719127;81;21203;-65
2021/03/16 00:27:45;;;;;;;17.98;11.88;;;;;;;6.65;67.92;99498.79;1725188;81;21183;-65
2021/03/16 00:30:15;;;;;;;17.05;11.03;;;;;;;6.61;67.85;99496.07;1763147;81;21255;-65
2021/03/16 00:32:42;;;;;;;16.48;10.72;;;;;;;6.57;67.70;99492.02;1762866;79;21172;-65
2021/03/16 00:35:12;;;;;;;16.73;10.95;;;;;;;6.49;67.59;99493.45;1765138;80;21199;-65
2021/03/16 00:37:39;;;;;;;17.02;9.68;;;;;;;6.50;67.53;99496.41;1744852;80;21174;-65
2021/03/16 00:40:10;;;;;;;16.17;8.70;;;;;;;6.58;67.27;99493.20;1735829;80;22276;-65
2021/03/16 00:42:37;;;;;;;15.05;8.73;;;;;;;6.62;67.15;99495.10;1716375;81;22123;-65
2021/03/16 00:45:07;;;;;;;14.65;9.70;;;;;;;6.67;67.25;99485.12;1753790;80;21127;-65
2021/03/16 00:47:34;;;;;;;17.82;10.28;;;;;;;6.71;67.12;99480.02;1741099;80;21165;-65
2021/03/16 00:50:06;;;;;;;15.65;10.90;;;;;;;6.73;66.99;99475.98;1772549;79;21117;-66
2021/03/16 00:52:34;;;;;;;16.97;10.98;;;;;;;6.72;67.05;99484.77;1770239;80;21542;-65
2021/03/16 00:55:04;;;;;;;18.80;10.55;;;;;;;6.72;67.05;99484.77;1768484;78;21550;-65
2021/03/16 00:57:32;;;;;;;17.40;10.53;;;;;;;6.65;66.61;99480.48;1780002;78;21180;-65
2021/03/16 01:00:00;;;;;;;16.25;10.32;;;;;;;6.61;66.60;99485.13;1755982;80;21151;-65
2021/03/16 01:02:29;;;;;;;15.45;10.15;;;;;;;6.56;66.61;99488.58;1731123;82;21215;-65
2021/03/16 01:04:59;;;;;;;18.55;10.53;;;;;;;6.49;66.57;99486.91;1754138;80;21259;-66
2021/03/16 01:07:26;;;;;;;13.88;10.03;;;;;;;6.41;66.82;99478.01;1780209;80;21548;-66
2021/03/16 01:09:53;;;;;;;15.98;10.32;;;;;;;6.38;66.95;99479.06;1775157;78;21922;-66
2021/03/16 01:12:22;;;;;;;16.62;9.65;;;;;;;6.46;66.75;99475.39;1730388;81;21208;-67
2021/03/16 01:14:49;;;;;;;14.70;10.25;;;;;;;6.57;66.81;99473.23;1759523;80;21159;-66
2021/03/16 01:17:16;;;;;;;16.75;9.70;;;;;;;6.64;66.57;99470.52;1757658;81;21673;-66
2021/03/16 01:19:44;;;;;;;19.73;11.38;;;;;;;6.66;66.39;99462.56;1756743;80;21176;-66
2021/03/16 01:22:11;;;;;;;14.90;10.40;;;;;;;6.66;66.28;99465.17;1753060;80;21199;-67
2021/03/16 01:24:39;;;;;;;17.25;9.50;;;;;;;6.65;66.05;99466.94;1758367;80;21630;-66
2021/03/16 01:27:07;;;;;;;15.72;9.98;;;;;;;6.61;65.88;99464.22;1726667;80;21184;-66
2021/03/16 01:29:35;;;;;;;16.05;10.48;;;;;;;6.58;65.79;99463.63;1759440;80;21159;-66
2021/03/16 01:32:03;;;;;;;16.42;10.20;;;;;;;6.47;65.87;99468.37;1752064;81;21196;-67
2021/03/16 01:34:31;;;;;;;15.88;10.20;;;;;;;6.37;66.12;99465.66;1759232;81;21203;-66
2021/03/16 01:36:58;;;;;;;16.20;11.18;;;;;;;6.31;66.42;99468.73;1759153;80;22246;-66
2021/03/16 01:39:26;;;;;;;16.32;10.43;;;;;;;6.26;66.54;99469.56;1728152;81;21215;-67
2021/03/16 01:41:53;;;;;;;14.75;9.88;;;;;;;6.23;66.56;99464.57;1742470;81;21703;-66
2021/03/16 01:44:21;;;;;;;13.53;9.10;;;;;;;6.23;66.53;99470.62;1737248;81;21132;-66
2021/03/16 01:46:50;;;;;;;15.20;10.13;;;;;;;6.31;66.29;99469.56;1740334;81;21609;-66
2021/03/16 01:49:19;;;;;;;16.97;9.80;;;;;;;6.38;66.00;99473.84;1737412;81;21239;-65
2021/03/16 01:51:46;;;;;;;13.15;9.00;;;;;;;6.40;66.10;99473.72;1684994;81;21674;-66
2021/03/16 01:54:13;;;;;;;15.85;9.88;;;;;;;6.39;66.05;99476.82;1737157;81;21154;-66
2021/03/16 01:56:41;;;;;;;15.75;10.32;;;;;;;6.33;66.12;99476.80;1731922;81;23158;-67
2021/03/16 01:59:27;;;;;;;13.90;9.35;;;;;;;6.28;66.23;99478.11;1706808;81;21230;-66
2021/03/16 02:02:13;;;;;;;16.67;10.38;;;;;;;6.23;66.32;99475.02;1742469;81;21115;-66
2021/03/16 02:04:59;;;;;;;14.25;10.75;;;;;;;6.16;66.34;99479.88;1745326;81;21195;-66
2021/03/16 02:08:23;;;;;;;14.07;10.08;;;;;;;6.07;66.58;99472.28;1706350;82;21185;-66
2021/03/16 02:11:35;;;;;;;18.42;10.45;;;;;;;6.01;66.74;99476.64;1695224;82;21199;-66
2021/03/16 02:14:36;;;;;;;16.48;9.73;;;;;;;5.90;66.77;99478.74;1734298;81;21195;-67
2021/03/16 02:17:34;;;;;;;16.02;9.45;;;;;;;5.78;66.89;99482.25;1744628;81;21117;-66
2021/03/16 02:21:01;;;;;;;13.65;8.43;;;;;;;5.82;66.79;99475.87;1735661;81;21192;-66
2021/03/16 02:24:08;;;;;;;14.78;9.05;;;;;;;5.82;66.79;99475.87;1730701;81;21179;-66
2021/03/16 02:27:18;;;;;;;14.95;9.90;;;;;;;5.84;66.74;99470.05;1730512;81;21377;-66
2021/03/16 02:30:06;;;;;;;16.35;8.93;;;;;;;5.84;66.96;99471.36;1713554;82;21188;-66
2021/03/16 02:32:53;;;;;;;15.78;9.75;;;;;;;5.83;66.97;99474.08;1709969;81;21176;-66
2021/03/16 02:35:40;;;;;;;16.23;10.53;;;;;;;5.83;66.92;99468.86;1737282;81;21147;-66
2021/03/16 02:38:30;;;;;;;15.35;9.30;;;;;;;5.80;66.77;99467.78;1717982;81;21159;-65
2021/03/16 02:41:17;;;;;;;19.27;10.85;;;;;;;5.72;66.94;99465.76;1739075;81;22388;-65
2021/03/16 02:44:05;;;;;;;16.67;9.85;;;;;;;5.72;66.94;99465.76;1737185;81;21156;-65
2021/03/16 02:46:52;;;;;;;13.08;9.45;;;;;;;5.69;66.50;99465.50;1710491;82;21239;-65
2021/03/16 02:49:43;;;;;;;13.80;9.98;;;;;;;5.62;66.52;99468.70;1738218;81;21207;-66
2021/03/16 02:52:29;;;;;;;13.85;9.60;;;;;;;5.55;66.50;99468.31;1705220;81;21235;-66
2021/03/16 02:55:15;;;;;;;15.27;9.37;;;;;;;5.43;66.61;99466.14;1739156;81;21180;-66
2021/03/16 02:58:01;;;;;;;13.55;10.60;;;;;;;5.35;66.70;99461.47;1754225;80;21592;-66
2021/03/16 03:00:51;;;;;;;17.37;9.73;;;;;;;5.43;66.52;99460.92;1709006;80;22578;-65
2021/03/16 03:03:38;;;;;;;14.80;9.13;;;;;;;5.43;66.52;99460.92;1738818;81;21131;-66
2021/03/16 03:06:24;;;;;;;15.35;8.95;;;;;;;5.47;66.38;99461.52;1741877;81;21601;-66
2021/03/16 03:09:12;;;;;;;16.40;9.98;;;;;;;5.48;66.41;99461.41;1712846;81;21617;-66
2021/03/16 03:11:57;;;;;;;15.90;8.90;;;;;;;5.44;66.42;99456.04;1746505;81;21242;-66
2021/03/16 03:14:43;;;;;;;16.85;10.98;;;;;;;5.39;66.27;99456.38;1766115;79;21663;-67
2021/03/16 03:17:29;;;;;;;20.72;11.28;;;;;;;5.36;66.41;99467.51;1774867;79;21168;-65
2021/03/16 03:20:15;;;;;;;;;;;;;;;5.32;66.25;99466.08;1758216;79;21160;-67
2021/03/16 03:23:22;;;;;;;16.75;9.58;;;;;;;5.25;66.28;99470.09;1751278;80;21163;-65
2021/03/16 03:26:12;;;;;;;13.73;9.03;;;;;;;5.08;66.53;99461.70;1758726;80;21131;-68
2021/03/16 03:28:58;;;;;;;15.05;10.50;;;;;;;5.00;66.58;99464.02;1748721;80;21571;-66
2021/03/16 03:31:46;;;;;;;15.85;10.80;;;;;;;4.93;66.72;99464.92;1719718;81;21140;-66
2021/03/16 03:34:34;;;;;;;14.87;10.00;;;;;;;4.87;66.78;99468.44;1759037;80;21670;-65
2021/03/16 03:37:21;;;;;;;14.55;8.73;;;;;;;4.80;66.88;99462.34;1725790;81;21211;-66
2021/03/16 03:40:09;;;;;;;15.68;8.80;;;;;;;4.83;66.73;99463.92;1713871;83;21182;-66
2021/03/16 03:42:56;;;;;;;14.10;9.03;;;;;;;4.92;66.46;99463.25;1752478;80;21203;-67
2021/03/16 03:45:42;;;;;;;13.70;8.93;;;;;;;5.06;65.99;99464.89;1749509;80;21152;-66
2021/03/16 03:48:28;;;;;;;15.45;9.35;;;;;;;5.06;65.99;99464.89;1752049;80;21589;-65
2021/03/16 03:51:14;;;;;;;18.15;10.45;;;;;;;5.03;65.98;99462.02;1744565;80;21276;-66
2021/03/16 03:54:00;;;;;;;14.23;8.95;;;;;;;5.05;65.80;99457.17;1725985;82;21614;-65
2021/03/16 03:56:47;;;;;;;16.05;9.03;;;;;;;5.02;65.69;99459.04;1712929;81;22157;-65
2021/03/16 03:59:33;;;;;;;14.05;9.58;;;;;;;4.97;65.60;99452.50;1750898;80;21168;-66
2021/03/16 04:02:20;;;;;;;16.97;9.75;;;;;;;4.92;65.50;99453.30;1724180;80;21175;-68
2021/03/16 04:07:00;;;;;;;15.48;9.20;;;;;;;4.84;65.52;99448.62;1881714;74;23448;-67
2021/03/16 04:09:46;;;;;;;;;;;;;;;4.77;65.57;99452.61;1810347;76;21180;-67
2021/03/16 04:12:36;;;;;;;13.53;8.68;;;;;;;4.72;65.61;99450.80;1826411;76;22967;-68
2021/03/16 04:15:22;;;;;;;19.23;9.53;;;;;;;4.58;65.85;99451.78;1836506;76;21017;-67
2021/03/16 04:18:10;;;;;;;15.20;9.03;;;;;;;4.50;66.02;99454.91;1838554;76;21137;-67
2021/03/16 04:20:56;;;;;;;16.87;9.78;;;;;;;4.42;66.05;99448.09;1799478;77;21112;-67
2021/03/16 04:23:42;;;;;;;13.55;8.95;;;;;;;4.34;66.23;99448.64;1808336;77;26416;-67
2021/03/16 04:26:28;;;;;;;;;;;;;;;4.27;66.42;99450.84;1810248;77;22300;-66
2021/03/16 04:29:14;;;;;;;16.55;9.30;;;;;;;4.34;66.36;99457.77;1820220;77;20181;-67
2021/03/16 04:32:00;;;;;;;15.00;9.30;;;;;;;4.40;66.26;99458.62;1803211;77;22225;-66
2021/03/16 04:34:48;;;;;;;15.43;9.20;;;;;;;4.48;66.16;99463.79;1807260;77;21151;-67
2021/03/16 04:37:33;;;;;;;15.53;9.03;;;;;;;4.56;66.03;99463.61;1797663;77;21223;-67
2021/03/16 04:40:20;;;;;;;14.58;8.70;;;;;;;4.64;65.91;99463.91;1805903;77;21530;-66
2021/03/16 04:43:07;;;;;;;16.17;8.58;;;;;;;4.66;65.85;99462.51;1774504;78;21178;-66
2021/03/16 04:45:53;;;;;;;14.63;9.45;;;;;;;4.65;65.78;99464.26;1777264;77;21246;-65
2021/03/16 04:48:40;;;;;;;17.30;10.05;;;;;;;4.67;65.75;99464.63;1797905;77;21171;-67
2021/03/16 04:51:27;;;;;;;15.90;10.25;;;;;;;4.70;65.60;99470.94;1813936;77;21645;-66
2021/03/16 04:54:14;;;;;;;23.57;9.53;;;;;;;4.68;65.55;99468.44;1803754;78;21202;-65
2021/03/16 04:57:00;;;;;;;16.40;9.08;;;;;;;4.65;65.49;99469.95;1780315;78;21188;-65
2021/03/16 04:59:46;;;;;;;16.27;9.05;;;;;;;4.62;65.54;99480.13;1802984;78;21167;-64
2021/03/16 05:02:32;;;;;;;13.43;8.43;;;;;;;4.59;65.62;99479.03;1799394;77;21159;-66
2021/03/16 05:05:18;;;;;;;19.82;10.13;;;;;;;4.57;65.67;99477.02;1797122;78;25595;-65
2021/03/16 05:08:06;;;;;;;16.45;10.28;;;;;;;4.55;65.70;99480.17;1805369;77;21380;-64
2021/03/16 05:10:54;;;;;;;11.95;8.90;;;;;;;4.53;65.81;99476.84;1809760;77;21203;-67
2021/03/16 05:13:41;;;;;;;17.07;10.95;;;;;;;4.53;65.73;99476.84;1790302;78;21653;-66
2021/03/16 05:16:28;;;;;;;14.90;8.98;;;;;;;4.58;65.77;99470.84;1810337;77;21179;-66
2021/03/16 05:19:13;;;;;;;17.17;9.38;;;;;;;4.74;65.47;99464.55;1782062;78;21136;-66
2021/03/16 05:22:00;;;;;;;18.05;9.95;;;;;;;4.87;65.30;99464.05;1809854;77;21349;-69
2021/03/16 05:24:46;;;;;;;18.12;9.68;;;;;;;4.98;65.04;99467.22;1788035;78;21210;-66
2021/03/16 05:27:31;;;;;;;17.17;10.67;;;;;;;5.05;64.93;99478.04;1809340;78;22247;-68
2021/03/16 05:33:28;;;;;;;18.17;10.13;;;;;;;5.05;65.01;99478.86;1772912;79;21230;-67
2021/03/16 05:36:14;;;;;;;;;;;;;;;5.02;65.14;99477.30;1763074;80;21401;-67
2021/03/16 05:39:00;;;;;;;18.07;10.05;;;;;;;5.00;65.22;99475.27;1773003;80;21524;-68
2021/03/16 05:41:46;;;;;;;18.23;10.17;;;;;;;4.94;65.32;99474.42;1758410;78;21214;-70
2021/03/16 05:44:31;;;;;;;19.80;10.93;;;;;;;4.95;65.30;99472.16;1767824;79;21875;-69
2021/03/16 05:47:18;;;;;;;17.10;11.00;;;;;;;4.99;65.17;99476.69;1776082;78;21186;-69
2021/03/16 05:50:07;;;;;;;16.50;10.75;;;;;;;5.04;64.83;99481.09;1765328;80;22342;-68
2021/03/16 05:52:55;;;;;;;21.27;11.75;;;;;;;5.07;64.71;99481.36;1713275;82;21213;-66
2021/03/16 05:55:42;;;;;;;14.55;9.93;;;;;;;5.10;64.50;99475.94;1732489;81;21247;-66
2021/03/16 05:58:29;;;;;;;18.25;9.75;;;;;;;5.15;64.47;99479.04;1736250;82;21583;-65
2021/03/16 06:01:16;;;;;;;19.05;10.38;;;;;;;5.28;64.29;99482.43;1745608;80;21170;-65
2021/03/16 06:04:02;;;;;;;17.62;10.32;;;;;;;5.63;63.38;99480.33;1726301;82;21157;-66
2021/03/16 06:06:48;;;;;;;16.05;9.60;;;;;;;5.75;63.73;99479.41;1716913;82;21198;-66
2021/03/16 06:09:35;;;;;;;18.23;10.95;;;;;;;5.75;63.73;99479.41;1740988;82;21250;-66
2021/03/16 06:12:34;;;;;;;20.55;10.78;;;;;;;5.83;63.47;99492.36;1736893;81;21182;-69
2021/03/16 06:15:21;;;;;;;13.93;9.93;;;;;;;5.90;63.38;99505.30;1720583;82;21114;-66
2021/03/16 06:18:10;;;;;;;20.88;11.40;;;;;;;5.99;63.90;99532.56;1727998;81;21661;-65
2021/03/16 06:21:01;;;;;;;20.10;11.38;;;;;;;5.99;63.90;99532.56;1730210;81;21147;-66
2021/03/16 06:23:56;;;;;;;15.25;10.23;;;;;;;6.01;64.02;99517.61;1732329;82;21111;-65
2021/03/16 06:26:48;;;;;;;16.57;9.55;;;;;;;6.04;64.13;99538.28;1726904;81;21208;-64
2021/03/16 06:29:41;;;;;;;15.53;10.08;;;;;;;6.03;64.33;99552.27;1707434;82;21508;-62
2021/03/16 06:32:35;;;;;;;16.77;10.85;;;;;;;6.03;64.33;99552.27;1732139;81;21226;-63
2021/03/16 06:35:24;;;;;;;17.17;9.60;;;;;;;6.07;64.61;99548.02;1736519;80;21196;-64
2021/03/16 06:38:11;;;;;;;14.63;8.90;;;;;;;6.20;64.24;99536.64;1735328;82;21197;-64
2021/03/16 06:41:18;;;;;;;20.52;8.73;;;;;;;6.37;63.84;99537.52;1742840;80;21147;-63
2021/03/16 06:44:05;;;;;;;16.70;9.05;;;;;;;6.48;63.22;99525.75;1713308;82;21831;-64
2021/03/16 06:46:59;;;;;;;17.52;8.95;;;;;;;6.56;62.95;99528.27;1725387;81;21157;-63
2021/03/16 06:49:46;;;;;;;16.67;8.33;;;;;;;6.63;62.91;99529.45;1730633;81;21219;-65
2021/03/16 06:52:34;;;;;;;15.48;9.03;;;;;;;6.68;62.65;99523.39;1735827;81;21630;-59
2021/03/16 06:55:21;;;;;;;14.78;8.15;;;;;;;6.74;62.56;99516.39;1726531;81;21125;-69
2021/03/16 06:58:08;;;;;;;16.73;7.87;;;;;;;6.76;62.41;99518.86;1707401;82;21183;-65
2021/03/16 07:01:10;;;;;;;17.80;9.93;;;;;;;6.80;62.19;99512.45;1731256;81;21685;-65
2021/03/16 07:03:56;;;;;;;13.43;8.43;;;;;;;6.86;61.94;99513.29;1743932;80;21183;-67
2021/03/16 07:06:43;;;;;;;;;;;;;;;6.87;62.10;99513.63;1744497;80;21218;-68
2021/03/16 07:09:29;;;;;;;18.25;9.33;;;;;;;6.91;61.68;99502.45;1746139;80;20295;-69
2021/03/16 07:12:17;;;;;;;16.32;9.70;;;;;;;6.84;61.88;99509.48;1730621;80;21511;-67
2021/03/16 07:15:06;;;;;;;14.45;8.48;;;;;;;6.79;62.07;99510.32;1751343;80;21213;-66
2021/03/16 07:17:52;;;;;;;12.53;8.13;;;;;;;6.79;62.15;99510.32;1749618;80;21209;-66
2021/03/16 07:20:39;;;;;;;14.58;7.97;;;;;;;6.79;62.09;99510.32;1787848;79;21132;-67
2021/03/16 07:23:26;;;;;;;17.27;8.25;;;;;;;6.80;61.99;99513.77;1788536;79;21651;-68
2021/03/16 07:26:12;;;;;;;;;;;;;;;6.80;62.18;99515.06;1775126;79;21227;-67
2021/03/16 07:28:58;;;;;;;14.93;8.20;;;;;;;6.93;62.05;99525.41;1789191;79;21040;-67
2021/03/16 07:31:45;;;;;;;12.80;7.08;;;;;;;7.09;61.91;99518.48;1745677;81;21740;-70
2021/03/16 07:34:32;;;;;;;19.02;9.05;;;;;;;7.25;61.62;99515.00;1755302;80;21124;-66
2021/03/16 07:37:18;;;;;;;30.65;17.98;;;;;;;7.38;61.13;99516.98;1759292;80;21790;-67
2021/03/16 07:40:07;;;;;;;18.35;10.72;;;;;;;7.50;61.05;99509.93;1745992;81;21193;-68
2021/03/16 07:42:53;;;;;;;20.23;9.60;;;;;;;7.58;60.80;99506.22;1782237;79;21184;-66
2021/03/16 07:45:39;;;;;;;13.60;7.75;;;;;;;7.65;60.58;99507.00;1773901;79;21215;-67
2021/03/16 07:48:29;;;;;;;19.95;9.10;;;;;;;7.69;60.30;99499.27;1752711;80;21600;-71
2021/03/16 07:51:17;;;;;;;21.05;9.65;;;;;;;7.72;59.84;99491.16;1757673;80;21147;-68
2021/03/16 07:54:06;;;;;;;21.00;12.75;;;;;;;7.72;59.82;99509.00;1742448;81;21213;-66
2021/03/16 07:57:00;;;;;;;13.30;9.43;;;;;;;7.74;59.87;99502.33;1746160;81;21218;-66
2021/03/16 07:59:49;;;;;;;19.40;9.53;;;;;;;7.75;59.82;99500.05;1771707;79;21186;-66
2021/03/16 08:02:37;;;;;;;17.15;9.05;;;;;;;7.74;59.79;99511.50;1700213;81;21282;-66
2021/03/16 08:05:25;;;;;;;16.17;9.90;;;;;;;7.72;60.07;99512.11;1747622;80;21191;-67
2021/03/16 08:08:16;;;;;;;14.87;10.15;;;;;;;7.69;60.30;99506.63;1715812;81;21170;-67
2021/03/16 08:11:12;;;;;;;14.38;8.45;;;;;;;7.68;60.41;99492.35;1738681;81;23432;-66
2021/03/16 08:14:00;;;;;;;14.83;8.73;;;;;;;7.65;60.60;99492.59;1746070;80;22900;-67
2021/03/16 08:16:46;;;;;;;15.93;8.90;;;;;;;7.65;60.80;99487.36;1740540;81;21206;-65
2021/03/16 08:19:40;;;;;;;14.10;8.43;;;;;;;7.63;60.88;99497.50;1747450;81;21669;-68
2021/03/16 08:22:27;;;;;;;16.55;7.78;;;;;;;7.73;60.98;99484.49;1764225;79;21171;-67
2021/03/16 08:25:15;;;;;;;13.62;7.53;;;;;;;7.92;60.82;99479.03;1748548;80;21628;-66
2021/03/16 08:28:07;;;;;;;15.28;8.78;;;;;;;8.11;60.55;99483.55;1782968;79;21151;-65
2021/03/16 08:30:50;;;;;;;18.17;8.88;;;;;;;8.30;60.63;99484.95;1759573;79;21115;-65
2021/03/16 08:33:38;;;;;;;20.15;9.05;;;;;;;8.46;59.89;99484.52;1740540;80;21175;-65
2021/03/16 08:36:24;;;;;;;14.58;8.68;;;;;;;8.56;59.31;99470.15;1714314;81;21500;-66
2021/03/16 08:39:23;;;;;;;16.20;9.03;;;;;;;8.62;59.03;99465.66;1778727;79;23362;-65
2021/03/16 08:42:08;;;;;;;16.77;8.78;;;;;;;8.67;59.16;99473.96;1762262;79;21129;-64
2021/03/16 08:44:55;;;;;;;;;;;;;;;8.71;58.74;99481.11;1780578;79;21167;-67
2021/03/16 08:47:41;;;;;;;14.40;7.92;;;;;;;8.73;58.68;99477.86;1781754;79;20291;-66
2021/03/16 08:50:28;;;;;;;13.72;8.25;;;;;;;8.72;58.86;99473.57;1756087;80;21160;-67
2021/03/16 08:53:15;;;;;;;14.60;7.80;;;;;;;8.73;58.35;99473.44;1775789;79;21238;-66
2021/03/16 08:56:01;;;;;;;19.60;9.25;;;;;;;8.77;58.38;99475.80;1760718;79;21202;-65
2021/03/16 08:58:53;;;;;;;15.05;9.23;;;;;;;8.79;57.72;99473.87;1766409;79;22247;-66
2021/03/16 09:01:39;;;;;;;15.80;8.93;;;;;;;8.82;57.98;99471.80;1741045;80;21160;-66
2021/03/16 09:04:26;;;;;;;14.68;8.25;;;;;;;8.82;57.72;99468.36;1742621;81;21178;-67
2021/03/16 09:07:23;;;;;;;13.55;8.30;;;;;;;8.80;57.58;99472.92;1792112;78;26781;-67
2021/03/16 09:10:16;;;;;;;18.12;9.40;;;;;;;8.79;57.21;99468.63;1793833;78;21106;-66
2021/03/16 09:13:03;;;;;;;14.68;8.38;;;;;;;8.77;57.27;99468.75;1766746;79;21180;-66
2021/03/16 09:15:50;;;;;;;12.10;7.97;;;;;;;8.82;57.46;99463.11;1789721;79;21194;-66
2021/03/16 09:18:36;;;;;;;13.40;8.78;;;;;;;8.93;57.67;99472.19;1788389;78;21205;-66
2021/03/16 09:21:22;;;;;;;14.68;8.68;;;;;;;9.04;57.63;99470.74;1791844;79;23587;-65
2021/03/16 09:24:09;;;;;;;;;;;;;;;9.13;57.52;99479.62;1778073;78;21150;-65
2021/03/16 09:27:01;;;;;;;14.78;9.38;;;;;;;9.23;57.34;99480.92;1792355;79;20266;-66
2021/03/16 09:29:47;;;;;;;20.23;9.20;;;;;;;9.19;57.58;99470.36;1778006;79;21169;-67
2021/03/16 09:32:37;;;;;;;28.25;12.85;;;;;;;9.19;57.04;99484.31;1770326;79;21174;-66
2021/03/16 09:35:23;;;;;;;40.33;23.02;;;;;;;9.18;56.64;99492.31;1790732;79;21211;-70
2021/03/16 09:38:09;;;;;;;;;;;;;;;9.14;56.93;99492.25;1777644;79;21735;-66
2021/03/16 09:40:47;;;;;;;22.30;14.55;;;;;;;9.13;57.28;99489.27;1788104;79;20285;-64
2021/03/16 09:43:32;;;;;;;15.50;9.78;;;;;;;9.08;57.77;99483.14;1833194;77;22783;-67
2021/03/16 09:46:05;;;;;;;19.98;9.20;;;;;;;9.10;57.67;99492.52;1804663;77;21179;-68
2021/03/16 09:48:34;;;;;;;16.27;8.83;;;;;;;9.20;57.57;99498.28;1778118;78;21208;-66
2021/03/16 09:51:21;;;;;;;12.45;8.03;;;;;;;9.29;57.48;99497.45;1709539;82;21155;-69
2021/03/16 09:53:56;;;;;;;16.10;7.95;;;;;;;9.35;57.31;99500.04;1814061;78;21140;-68
2021/03/16 09:56:32;;;;;;;12.05;7.97;;;;;;;9.35;57.02;99507.42;1782414;78;21136;-66
2021/03/16 09:59:02;;;;;;;17.95;8.30;;;;;;;9.33;57.08;99505.88;1761139;80;21383;-68
2021/03/16 10:01:39;;;;;;;14.80;8.83;;;;;;;9.34;57.30;99503.62;1777738;78;21169;-67
2021/03/16 10:04:13;;;;;;;17.98;9.40;;;;;;;9.36;57.23;99502.50;1749177;78;21701;-67
2021/03/16 10:06:46;;;;;;;19.32;9.30;;;;;;;9.44;57.27;99506.59;1776021;77;21179;-69
2021/03/16 10:09:19;;;;;;;15.93;9.15;;;;;;;9.52;56.70;99507.23;1809422;77;21665;-65
2021/03/16 10:11:48;;;;;;;18.45;8.98;;;;;;;9.60;56.58;99510.00;1735720;80;27008;-68
2021/03/16 10:14:31;;;;;;;19.55;8.48;;;;;;;9.70;56.41;99507.84;1743346;80;22258;-68
2021/03/16 10:16:58;;;;;;;13.25;7.72;;;;;;;9.80;55.96;99505.57;1794136;77;21207;-67
2021/03/16 10:19:26;;;;;;;16.45;9.85;;;;;;;9.92;55.70;99506.72;1763945;79;21164;-66
2021/03/16 10:21:54;;;;;;;19.65;11.18;;;;;;;10.01;55.48;99499.31;1735058;80;21204;-68
2021/03/16 10:24:27;;;;;;;20.23;11.15;;;;;;;10.02;55.17;99497.05;1733588;80;21633;-67
2021/03/16 10:26:58;;;;;;;21.95;11.65;;;;;;;9.92;55.03;99494.89;1760471;80;21213;-68
2021/03/16 10:29:25;;;;;;;18.92;10.40;;;;;;;9.76;55.46;99496.30;1765608;78;21200;-68
2021/03/16 10:31:53;;;;;;;15.70;10.80;;;;;;;9.68;55.71;99501.41;1721501;80;21176;-66
2021/03/16 10:34:21;;;;;;;14.60;9.53;;;;;;;9.65;55.76;99494.65;1737372;78;21201;-68
2021/03/16 10:36:50;;;;;;;18.32;10.08;;;;;;;9.60;56.00;99493.39;1731856;80;21224;-67
2021/03/16 10:39:18;;;;;;;17.70;10.50;;;;;;;9.58;56.19;99499.27;1739124;80;21224;-69
2021/03/16 10:41:45;;;;;;;18.42;10.20;;;;;;;9.61;56.50;99499.00;1763300;80;21145;-68
2021/03/16 10:44:12;;;;;;;15.75;9.93;;;;;;;9.63;56.38;99498.37;1737384;80;21208;-68
2021/03/16 10:46:40;;;;;;;14.53;9.65;;;;;;;9.63;56.31;99495.73;1736721;80;22228;-70
2021/03/16 10:49:08;;;;;;;17.60;9.90;;;;;;;9.61;56.25;99491.94;1738242;80;21214;-67
2021/03/16 10:51:35;;;;;;;18.45;10.03;;;;;;;9.62;56.37;99492.79;1731803;80;21231;-67
2021/03/16 10:54:05;;;;;;;15.28;9.90;;;;;;;9.64;56.41;99487.73;1753246;80;22352;-68
2021/03/16 10:56:33;;;;;;;16.62;10.75;;;;;;;9.67;56.17;99487.95;1734464;80;21658;-68
2021/03/16 10:59:00;;;;;;;16.65;11.22;;;;;;;9.72;56.25;99483.59;1761331;80;21125;-69
2021/03/16 11:01:28;;;;;;;18.35;12.15;;;;;;;9.81;56.03;99485.38;1760392;80;21607;-68
2021/03/16 11:03:58;;;;;;;15.75;10.80;;;;;;;9.86;56.11;99477.40;1759678;80;23549;-66
2021/03/16 11:06:26;;;;;;;17.02;10.32;;;;;;;9.94;56.40;99471.45;1741544;80;22218;-67
2021/03/16 11:08:53;;;;;;;18.92;12.45;;;;;;;10.03;56.73;99467.14;1759892;80;21172;-68
2021/03/16 11:11:22;;;;;;;20.08;10.70;;;;;;;10.15;56.67;99464.68;1760309;80;21586;-68
2021/03/16 11:13:49;;;;;;;20.68;11.28;;;;;;;10.30;56.21;99457.66;1763578;80;21184;-68
2021/03/16 11:16:17;;;;;;;14.30;9.10;;;;;;;10.35;56.01;99453.65;1754470;80;21481;-68
2021/03/16 11:18:45;;;;;;;13.25;8.95;;;;;;;10.44;55.95;99460.34;1727469;80;21152;-67
2021/03/16 11:21:13;;;;;;;14.38;9.68;;;;;;;10.50;56.02;99459.27;1737152;80;21152;-67
2021/03/16 11:23:40;;;;;;;14.65;10.48;;;;;;;10.53;55.52;99462.93;1755783;80;21133;-67
2021/03/16 11:26:08;;;;;;;14.43;10.25;;;;;;;10.56;55.50;99456.57;1759486;80;21180;-67
2021/03/16 11:28:35;;;;;;;17.52;10.28;;;;;;;10.59;55.28;99456.25;1765034;80;21309;-67
2021/03/16 11:31:02;;;;;;;12.37;8.63;;;;;;;10.68;55.07;99451.94;1758666;80;21188;-66
2021/03/16 11:33:32;;;;;;;14.35;9.83;;;;;;;10.77;55.04;99449.23;1758593;80;21177;-67
2021/03/16 11:36:18;;;;;;;;;;;;;;;10.87;54.65;99451.81;1760114;80;21208;-69
2021/03/16 11:39:05;;;;;;;15.72;8.93;;;;;;;10.98;54.42;99453.44;1760226;80;20281;-69
2021/03/16 11:41:51;;;;;;;15.70;9.48;;;;;;;10.99;54.17;99456.38;1728214;80;21206;-68
2021/03/16 11:44:37;;;;;;;14.20;8.40;;;;;;;11.06;54.17;99452.20;1771703;79;21176;-68
2021/03/16 11:47:23;;;;;;;14.38;9.25;;;;;;;11.11;53.91;99443.38;1793245;79;21112;-68
2021/03/16 11:50:11;;;;;;;14.35;9.05;;;;;;;11.18;53.53;99442.28;1761929;79;21187;-68
2021/03/16 11:52:57;;;;;;;14.78;10.13;;;;;;;11.25;53.73;99445.97;1785097;79;21164;-68
2021/03/16 11:55:44;;;;;;;14.60;10.30;;;;;;;11.32;53.32;99441.74;1788042;79;21768;-66
2021/03/16 11:58:32;;;;;;;16.12;8.95;;;;;;;11.34;53.17;99440.28;1763093;79;21139;-65
2021/03/16 12:01:17;;;;;;;12.55;8.55;;;;;;;11.37;53.78;99443.94;1785470;79;21183;-69
2021/03/16 12:04:04;;;;;;;13.75;9.55;;;;;;;11.43;53.34;99444.66;1784165;80;21798;-67
2021/03/16 12:06:52;;;;;;;13.00;7.53;;;;;;;11.51;53.44;99449.97;1789081;78;21147;-67
2021/03/16 12:09:37;;;;;;;14.60;8.20;;;;;;;11.64;53.14;99440.37;1771351;80;22952;-67
2021/03/16 12:12:24;;;;;;;;;;;;;;;11.81;53.11;99441.31;1782831;79;21753;-68
2021/03/16 12:15:13;;;;;;;15.48;9.13;;;;;;;11.97;52.55;99439.33;1764303;79;20335;-65
2021/03/16 12:17:59;;;;;;;13.28;8.98;;;;;;;12.06;52.29;99442.33;1792489;79;21140;-64
2021/03/16 12:20:46;;;;;;;16.65;9.53;;;;;;;12.21;52.12;99435.18;1785754;78;21218;-65
2021/03/16 12:23:32;;;;;;;13.93;9.75;;;;;;;12.36;51.71;99435.42;1781957;79;21374;-68
2021/03/16 12:26:18;;;;;;;17.82;10.10;;;;;;;12.44;51.52;99435.47;1760328;80;21203;-67
2021/03/16 12:29:04;;;;;;;18.45;10.58;;;;;;;12.44;51.31;99433.64;1791801;79;21163;-67
2021/03/16 12:31:50;;;;;;;14.20;10.13;;;;;;;12.40;51.17;99430.16;1753496;80;21182;-66
2021/03/16 12:34:38;;;;;;;12.15;9.35;;;;;;;12.40;51.26;99434.92;1782331;78;21199;-68
2021/03/16 12:37:24;;;;;;;15.95;9.50;;;;;;;12.45;51.46;99443.20;1766594;79;22606;-66
2021/03/16 12:40:12;;;;;;;15.93;10.00;;;;;;;12.57;51.33;99438.97;1790350;78;21598;-66
2021/03/16 12:42:58;;;;;;;17.50;10.03;;;;;;;12.70;51.05;99432.75;1767191;80;21175;-65
2021/03/16 12:45:44;;;;;;;16.20;10.43;;;;;;;12.87;50.57;99432.80;1763575;79;21168;-65